Cabrils, Spain
Current Conditions -  °F | °C
As of 12:30 PM on Thursday 18 Dec 2014 (Local Time) from LELL Reporting Station
Few Clouds Few Clouds  
Wind Chill: 61°   Ceiling: Unl
Heat Index: 61°   Visibility: 6mi
Dew Point: 46°   Wind: 1mph
Humidity: 59%   Direction: NA
Pressure: 30.21"   Gusts: NA
Location:  41.53°N, 2.37°E
Report Text: LELL 181130Z VRB01KT 9999 FEW070 16/08 Q1023
Loading
Personal Weather Stations






























Interactive Weather Map New forecast layout! Learn more

10-Day Weather Forecast

Advertisements
Track Severe Weather on mobile